Time;durP1;ratioP1;P1;durP2;ratioP2;P2;SDS_P1;SDS_P2;PMS_P1;PMS_P2;Temp;Humidity;BMP_temperature;BMP_pressure;BME280_temperature;BME280_humidity;BME280_pressure;Samples;Min_cycle;Max_cycle;Signal;HPM_P1;HPM_P2
2021/12/24 00:00:16;;;;;;;24.35;11.73;;;-10.20;99.90;;;;;;6157312;23;19997;-90
2021/12/24 00:02:42;;;;;;;25.70;12.80;;;-10.10;99.90;;;;;;6157173;23;20087;-93
2021/12/24 00:05:08;;;;;;;26.58;12.07;;;-10.20;99.90;;;;;;6157143;23;20005;-90
2021/12/24 00:07:34;;;;;;;27.08;11.18;;;-10.10;99.90;;;;;;6157186;23;20012;-91
2021/12/24 00:10:00;;;;;;;28.65;12.82;;;-10.10;99.90;;;;;;6157118;22;20001;-91
2021/12/24 00:12:29;;;;;;;27.75;12.38;;;-9.40;99.90;;;;;;6157302;22;20005;-91
2021/12/24 00:15:01;;;;;;;29.38;13.93;;;-10.00;99.90;;;;;;6157306;23;20004;-91
2021/12/24 00:17:30;;;;;;;39.20;17.08;;;-10.00;99.90;;;;;;6156953;23;20007;-91
2021/12/24 00:36:14;;;;;;;32.15;14.25;;;;;;;;;;6183244;23;20008;-91
2021/12/24 00:38:40;;;;;;;30.75;13.93;;;-10.10;99.90;;;;;;6157112;23;20001;-90
2021/12/24 00:41:05;;;;;;;48.47;21.02;;;-10.00;99.90;;;;;;6157151;23;20052;-91
2021/12/24 00:43:31;;;;;;;28.33;14.18;;;-9.80;99.90;;;;;;6131763;23;20066;-91
2021/12/24 00:45:57;;;;;;;33.08;15.18;;;-10.10;99.90;;;;;;6127568;23;20013;-91
2021/12/24 00:48:23;;;;;;;26.83;12.88;;;-10.10;99.90;;;;;;6127560;23;20006;-92
2021/12/24 00:55:58;;;;;;;27.58;12.82;;;-10.00;99.90;;;;;;6163382;23;20025;-90
2021/12/24 00:58:23;;;;;;;21.83;10.35;;;-10.00;99.90;;;;;;6127691;23;20008;-90
2021/12/24 01:00:49;;;;;;;25.58;11.77;;;-9.90;99.90;;;;;;6127721;23;20047;-92
2021/12/24 01:03:15;;;;;;;24.05;12.02;;;-9.90;99.90;;;;;;6127417;23;20028;-91
2021/12/24 01:05:42;;;;;;;25.40;12.85;;;-9.90;99.90;;;;;;6128541;23;20006;-91
2021/12/24 01:08:10;;;;;;;30.50;12.95;;;-9.90;99.90;;;;;;6127524;23;20009;-91
2021/12/24 01:10:49;;;;;;;32.78;15.93;;;-9.90;99.90;;;;;;6127513;23;20005;-91
2021/12/24 01:13:15;;;;;;;24.08;12.65;;;-9.90;99.90;;;;;;6127275;23;20399;-91
2021/12/24 01:15:54;;;;;;;28.55;14.48;;;-10.00;99.90;;;;;;6127006;23;19998;-90
2021/12/24 01:18:39;;;;;;;28.02;14.60;;;-9.90;99.90;;;;;;6127488;23;20005;-91
2021/12/24 01:23:54;;;;;;;30.63;14.55;;;-10.00;99.90;;;;;;6163261;23;20013;-91
2021/12/24 01:26:35;;;;;;;27.20;12.38;;;-10.00;99.90;;;;;;6127471;23;20010;-90
2021/12/24 01:42:41;;;;;;;26.13;11.70;;;-9.90;99.90;;;;;;6169602;23;20021;-90
2021/12/24 01:45:34;;;;;;;19.15;10.70;;;-9.80;99.90;;;;;;6156602;23;20078;-90
2021/12/24 01:48:08;;;;;;;27.85;13.07;;;-9.50;99.90;;;;;;6153212;23;20335;-90
2021/12/24 01:50:37;;;;;;;29.75;12.48;;;-9.80;99.90;;;;;;6156680;23;20005;-91
2021/12/24 01:53:06;;;;;;;30.33;13.93;;;-9.10;99.90;;;;;;6156899;23;20082;-91
2021/12/24 01:55:32;;;;;;;27.27;12.32;;;-9.90;99.90;;;;;;6156833;23;20054;-91
2021/12/24 01:57:58;;;;;;;27.50;11.63;;;-9.80;99.90;;;;;;6156949;23;20424;-91
2021/12/24 02:00:27;;;;;;;29.73;11.73;;;-9.80;99.90;;;;;;6156643;23;20061;-91
2021/12/24 02:02:54;;;;;;;29.02;13.98;;;-9.80;99.90;;;;;;6156770;23;20009;-90
2021/12/24 02:05:20;;;;;;;44.38;18.48;;;-9.80;99.90;;;;;;6156383;23;20005;-91
2021/12/24 02:07:47;;;;;;;28.63;14.07;;;-9.70;99.90;;;;;;6157475;23;20015;-91
2021/12/24 02:10:15;;;;;;;25.60;13.50;;;-9.90;99.90;;;;;;6156337;23;20001;-90
2021/12/24 02:12:41;;;;;;;22.65;11.55;;;-9.90;99.90;;;;;;6156635;23;20084;-91
2021/12/24 02:15:22;;;;;;;19.80;10.50;;;-10.00;99.90;;;;;;6156702;23;20525;-91
2021/12/24 02:28:40;;;;;;;21.48;11.15;;;-9.60;99.90;;;;;;6182895;23;20324;-90
2021/12/24 02:31:12;;;;;;;19.38;10.82;;;-9.60;99.90;;;;;;6156532;23;20025;-90
2021/12/24 02:33:39;;;;;;;19.40;10.55;;;-9.70;99.90;;;;;;6156613;22;20066;-90
2021/12/24 02:36:05;;;;;;;21.58;11.10;;;;;;;;;;6156739;23;20031;-92
2021/12/24 02:38:31;;;;;;;22.25;11.27;;;-9.70;99.90;;;;;;6156322;23;20026;-91
2021/12/24 02:40:57;;;;;;;23.88;11.77;;;-9.80;99.90;;;;;;6156275;22;20005;-90
2021/12/24 02:43:24;;;;;;;24.58;11.80;;;-9.70;99.90;;;;;;6156457;22;20455;-90
2021/12/24 02:45:54;;;;;;;24.52;11.77;;;-9.60;99.90;;;;;;6156551;22;20332;-91
2021/12/24 02:56:40;;;;;;;30.67;15.77;;;-9.40;99.90;;;;;;6186598;23;20005;-90
2021/12/24 02:59:13;;;;;;;25.58;12.80;;;-9.50;99.90;;;;;;6184779;23;20008;-90
2021/12/24 03:01:46;;;;;;;21.10;11.02;;;-9.50;99.90;;;;;;6172534;23;20012;-90
2021/12/24 03:04:12;;;;;;;22.20;11.38;;;-9.40;99.90;;;;;;6156284;23;20005;-90
2021/12/24 03:06:41;;;;;;;24.95;12.70;;;-9.40;99.90;;;;;;6156270;23;20001;-91
2021/12/24 03:09:09;;;;;;;33.97;15.57;;;-9.30;99.90;;;;;;6156066;23;20008;-91
2021/12/24 03:11:35;;;;;;;31.50;16.52;;;-9.30;99.90;;;;;;6156042;22;20012;-91
2021/12/24 03:14:06;;;;;;;35.60;20.00;;;-9.20;99.90;;;;;;6156382;23;20044;-90
2021/12/24 03:16:32;;;;;;;32.65;18.58;;;-9.30;99.90;;;;;;6156032;23;20027;-91
2021/12/24 03:18:58;;;;;;;40.25;22.02;;;-9.40;99.90;;;;;;6156107;23;19998;-92
2021/12/24 03:21:33;;;;;;;34.95;20.95;;;-9.40;99.90;;;;;;6156085;23;20094;-90
2021/12/24 03:26:28;;;;;;;38.88;22.70;;;-9.30;99.90;;;;;;6182122;23;20078;-91
2021/12/24 03:28:53;;;;;;;43.95;28.63;;;-9.30;99.90;;;;;;6155897;23;20025;-90
2021/12/24 03:31:19;;;;;;;51.20;32.58;;;-9.30;99.90;;;;;;6155972;23;20008;-90
2021/12/24 03:33:45;;;;;;;42.92;25.17;;;-9.40;99.90;;;;;;6156155;23;20009;-90
2021/12/24 03:36:11;;;;;;;40.70;22.15;;;-9.40;99.90;;;;;;6155876;23;20092;-90
2021/12/24 03:38:36;;;;;;;33.38;16.90;;;-9.40;99.90;;;;;;6155767;22;20006;-91
2021/12/24 03:41:04;;;;;;;32.10;17.27;;;-9.60;99.90;;;;;;6156934;23;20009;-90
2021/12/24 03:43:30;;;;;;;40.28;20.85;;;-9.60;99.90;;;;;;6157299;22;20070;-91
2021/12/24 03:46:02;;;;;;;35.25;20.00;;;-9.50;99.90;;;;;;6157291;23;20424;-90
2021/12/24 03:48:53;;;;;;;39.70;23.00;;;-9.60;99.90;;;;;;6157153;23;20041;-91
2021/12/24 03:56:30;;;;;;;35.75;22.00;;;-9.60;99.90;;;;;;6183520;23;20012;-91
2021/12/24 03:58:56;;;;;;;26.88;15.10;;;-9.70;99.90;;;;;;6157153;23;20001;-91
2021/12/24 04:01:22;;;;;;;35.13;16.23;;;-9.70;99.90;;;;;;6157268;23;20012;-93
2021/12/24 04:03:48;;;;;;;54.35;22.58;;;-9.60;99.90;;;;;;6157219;22;20452;-91
2021/12/24 04:06:13;;;;;;;116.60;40.97;;;-9.50;99.90;;;;;;6157150;23;20001;-91
2021/12/24 04:08:39;;;;;;;134.48;44.83;;;-9.40;99.90;;;;;;6157482;23;20005;-92
2021/12/24 04:11:06;;;;;;;145.38;51.70;;;-9.20;99.90;;;;;;6157421;23;19997;-91
2021/12/24 04:13:32;;;;;;;119.85;40.80;;;-9.10;99.90;;;;;;6157144;23;20032;-91
2021/12/24 04:15:59;;;;;;;106.63;38.00;;;-8.90;99.90;;;;;;6157004;23;20009;-90
2021/12/24 04:26:22;;;;;;;81.45;28.23;;;-8.60;99.90;;;;;;6183374;23;20490;-91
2021/12/24 04:28:48;;;;;;;67.95;26.83;;;-8.50;99.90;;;;;;6157503;23;20009;-91
2021/12/24 04:31:14;;;;;;;57.88;27.38;;;-8.50;99.90;;;;;;6157205;23;20397;-91
2021/12/24 04:33:45;;;;;;;44.85;23.85;;;-8.60;99.90;;;;;;6156941;23;20420;-90
2021/12/24 04:52:53;;;;;;;70.47;25.08;;;-8.40;99.90;;;;;;6182901;23;20012;-91
2021/12/24 05:03:37;;;;;;;147.23;46.47;;;-8.00;99.90;;;;;;6185717;23;20500;-90
2021/12/24 05:08:43;;;;;;;86.68;28.30;;;-8.00;99.90;;;;;;6183446;23;20009;-90
2021/12/24 05:11:12;;;;;;;73.53;24.50;;;-7.10;99.90;;;;;;6157155;22;20013;-90
2021/12/24 05:13:38;;;;;;;86.38;31.88;;;-7.70;99.90;;;;;;6183322;23;20012;-90
2021/12/24 05:21:35;;;;;;;29.33;14.10;;;-7.50;99.90;;;;;;6193381;23;20047;-90
2021/12/24 05:24:07;;;;;;;32.00;13.40;;;-7.40;99.90;;;;;;6156671;23;20012;-90
2021/12/24 05:26:34;;;;;;;41.63;13.70;;;-7.50;99.90;;;;;;6157264;22;20001;-90
2021/12/24 05:29:02;;;;;;;37.88;14.65;;;-7.40;99.90;;;;;;6156993;22;20011;-90
2021/12/24 05:31:29;;;;;;;35.30;15.18;;;-7.50;99.90;;;;;;6156831;23;20009;-90
2021/12/24 05:33:55;;;;;;;30.25;12.60;;;-7.40;99.90;;;;;;6156851;22;20001;-90
2021/12/24 05:36:21;;;;;;;29.45;13.25;;;-7.40;99.90;;;;;;6156933;23;20305;-90
2021/12/24 05:38:46;;;;;;;25.90;11.95;;;-7.40;99.90;;;;;;6156614;23;20080;-90
2021/12/24 05:41:15;;;;;;;27.10;12.23;;;-7.40;99.90;;;;;;6156435;23;20012;-90
2021/12/24 05:43:41;;;;;;;21.33;10.10;;;-7.40;99.90;;;;;;6156722;23;20115;-93
2021/12/24 05:46:08;;;;;;;21.00;10.00;;;-7.30;99.90;;;;;;6157458;23;20028;-90
2021/12/24 05:48:33;;;;;;;23.58;10.32;;;-7.30;99.90;;;;;;6156868;23;20058;-91
2021/12/24 05:50:59;;;;;;;19.15;10.15;;;-7.20;99.90;;;;;;6156645;23;20009;-91
2021/12/24 05:53:26;;;;;;;19.02;10.02;;;-7.20;99.90;;;;;;6156639;23;20032;-90
2021/12/24 05:55:51;;;;;;;18.50;9.85;;;-7.30;99.90;;;;;;6156634;23;20472;-91
2021/12/24 05:58:18;;;;;;;18.35;8.82;;;-7.50;99.90;;;;;;6156753;22;20028;-89
2021/12/24 15:40:27;;;;;;;7.03;4.95;;;-3.60;99.90;;;;;;4525837;27;15210303;-91
2021/12/24 15:42:54;;;;;;;13.40;5.82;;;-3.60;99.90;;;;;;5050366;28;20033;-91
2021/12/24 15:45:20;;;;;;;8.45;6.55;;;-3.60;99.90;;;;;;5050530;28;20025;-90
2021/12/24 15:48:12;;;;;;;27.63;8.13;;;-3.60;99.90;;;;;;5021036;28;1381467;-91
2021/12/24 15:50:38;;;;;;;15.23;9.40;;;-3.50;99.90;;;;;;5051411;28;20127;-91
2021/12/24 15:53:05;;;;;;;13.57;6.85;;;-3.50;99.90;;;;;;5038457;28;20034;-91
2021/12/24 15:55:33;;;;;;;19.15;10.48;;;-3.50;99.90;;;;;;5038832;28;20029;-91
2021/12/24 15:58:01;;;;;;;29.27;16.33;;;-3.40;99.90;;;;;;5050601;28;20025;-91
2021/12/24 16:00:28;;;;;;;31.98;16.13;;;-3.40;99.90;;;;;;5051707;28;20355;-90
2021/12/24 16:02:54;;;;;;;9.68;8.40;;;-3.30;99.90;;;;;;5046890;28;20044;-92
2021/12/24 16:05:20;;;;;;;17.27;12.25;;;-3.30;99.90;;;;;;5050767;28;20471;-91
2021/12/24 16:08:10;;;;;;;12.60;9.15;;;-3.20;99.90;;;;;;5041485;28;20041;-91
2021/12/24 16:10:39;;;;;;;17.10;7.22;;;-3.10;99.90;;;;;;5030806;28;20030;-91
2021/12/24 16:13:05;;;;;;;14.07;8.32;;;-3.00;99.90;;;;;;5030647;28;20463;-90
2021/12/24 16:15:34;;;;;;;17.95;8.55;;;-3.00;99.90;;;;;;5034786;28;20049;-91
2021/12/24 16:18:00;;;;;;;15.60;8.60;;;-3.00;99.90;;;;;;5049619;28;20025;-91
2021/12/24 16:20:26;;;;;;;15.63;8.23;;;-3.00;99.90;;;;;;5050062;28;20036;-91
2021/12/24 16:22:52;;;;;;;11.48;6.07;;;-2.90;99.90;;;;;;5049843;28;20022;-91
2021/12/24 16:25:18;;;;;;;12.23;8.55;;;-3.00;99.90;;;;;;5049963;28;20035;-91
2021/12/24 16:27:44;;;;;;;30.58;12.77;;;-2.90;99.90;;;;;;5049862;28;20025;-91
2021/12/24 16:30:13;;;;;;;38.38;17.33;;;-2.90;99.90;;;;;;5050470;28;20022;-91
2021/12/24 16:32:39;;;;;;;20.38;10.32;;;-2.90;99.90;;;;;;5049867;28;20029;-91
2021/12/24 16:35:11;;;;;;;13.52;8.75;;;-2.90;99.90;;;;;;5050170;28;20025;-91
2021/12/24 16:37:37;;;;;;;33.90;11.40;;;-2.90;99.90;;;;;;5049744;28;20071;-91
2021/12/24 16:40:08;;;;;;;13.20;9.05;;;-2.90;99.90;;;;;;5049791;28;20108;-91
2021/12/24 16:42:34;;;;;;;18.30;7.72;;;-2.90;99.90;;;;;;5049116;28;20033;-91
2021/12/24 16:45:00;;;;;;;13.85;7.13;;;-2.90;99.90;;;;;;5050591;28;20083;-91
2021/12/24 16:47:26;;;;;;;8.52;4.78;;;-2.90;99.90;;;;;;5049187;28;20119;-92
2021/12/24 16:49:52;;;;;;;11.73;6.18;;;-2.90;99.90;;;;;;5049375;28;20433;-92
2021/12/24 16:52:18;;;;;;;21.23;10.88;;;-2.90;99.90;;;;;;5049595;28;20135;-91
2021/12/24 16:54:44;;;;;;;16.75;7.75;;;-2.90;99.90;;;;;;5049367;28;20116;-92
2021/12/24 16:57:10;;;;;;;9.73;5.05;;;-2.80;99.90;;;;;;5048951;28;20116;-91
2021/12/24 16:59:40;;;;;;;6.50;5.07;;;-2.80;99.90;;;;;;5035477;28;20124;-92
2021/12/24 17:02:09;;;;;;;37.85;11.52;;;-2.80;99.90;;;;;;5030177;28;20487;-92
2021/12/24 17:04:35;;;;;;;21.85;10.65;;;-2.80;99.90;;;;;;5016663;28;20041;-89
2021/12/24 17:07:00;;;;;;;29.50;8.88;;;-2.80;99.90;;;;;;5025089;28;20026;-89
2021/12/24 17:09:26;;;;;;;12.13;8.25;;;-2.80;99.90;;;;;;5035878;28;20108;-90
2021/12/24 17:11:52;;;;;;;11.20;8.10;;;-2.80;99.90;;;;;;5036014;28;20021;-90
2021/12/24 17:14:17;;;;;;;9.50;5.03;;;-2.70;99.90;;;;;;5035732;28;20418;-89
2021/12/24 17:16:43;;;;;;;7.70;5.82;;;-2.80;99.90;;;;;;5035689;28;20040;-89
2021/12/24 17:19:10;;;;;;;9.88;4.57;;;-2.80;99.90;;;;;;5035656;28;20390;-89
2021/12/24 17:21:36;;;;;;;7.90;3.78;;;-2.80;99.90;;;;;;5035632;28;20036;-90
2021/12/24 17:24:03;;;;;;;14.35;5.90;;;-2.80;99.90;;;;;;5035694;28;20033;-89
2021/12/24 17:26:28;;;;;;;8.77;5.43;;;-2.70;99.90;;;;;;5035646;28;20036;-90
2021/12/24 17:28:54;;;;;;;17.60;5.70;;;-2.70;99.90;;;;;;5035545;28;20021;-90
2021/12/24 17:31:20;;;;;;;9.65;5.90;;;-2.70;99.90;;;;;;5035806;28;20026;-90
2021/12/24 17:33:46;;;;;;;12.35;6.72;;;-2.70;99.90;;;;;;5035074;28;20021;-89
2021/12/24 17:36:13;;;;;;;8.48;5.38;;;-2.70;99.90;;;;;;5035392;28;20037;-89
2021/12/24 17:38:40;;;;;;;14.07;7.65;;;-2.70;99.90;;;;;;5035187;28;20047;-89
2021/12/24 17:41:06;;;;;;;7.05;5.00;;;-2.70;99.90;;;;;;5035093;28;20037;-91
2021/12/24 17:43:32;;;;;;;11.70;6.18;;;-2.70;99.90;;;;;;5035423;28;20025;-90
2021/12/24 17:45:58;;;;;;;11.25;5.47;;;-2.70;99.90;;;;;;5034798;28;20025;-90
2021/12/24 17:48:24;;;;;;;4.55;3.85;;;-2.60;99.90;;;;;;5035205;28;20048;-90
2021/12/24 17:50:50;;;;;;;7.78;4.80;;;-2.70;99.90;;;;;;5035030;28;20116;-90
2021/12/24 17:53:16;;;;;;;4.72;4.25;;;-2.70;99.90;;;;;;5035050;28;20548;-90
2021/12/24 17:55:41;;;;;;;16.90;7.38;;;-2.60;99.90;;;;;;5034729;28;20071;-89
2021/12/24 17:58:07;;;;;;;12.35;7.50;;;-2.70;99.90;;;;;;5034974;28;20033;-89
2021/12/24 18:00:34;;;;;;;5.88;5.13;;;-2.70;99.90;;;;;;5034595;28;20521;-90
2021/12/24 18:03:00;;;;;;;11.18;6.57;;;-2.70;99.90;;;;;;5034706;28;20132;-90
2021/12/24 18:05:25;;;;;;;8.07;5.70;;;-2.70;99.90;;;;;;5034619;28;20061;-90
2021/12/24 18:07:52;;;;;;;4.82;4.20;;;-2.60;99.90;;;;;;5035751;28;20486;-89
2021/12/24 18:10:21;;;;;;;14.13;6.07;;;-2.70;99.90;;;;;;5033171;28;20097;-90
2021/12/24 18:12:47;;;;;;;7.82;4.60;;;-2.70;99.90;;;;;;5034561;28;20029;-89
2021/12/24 18:15:14;;;;;;;7.95;5.05;;;-2.70;99.90;;;;;;5030181;28;20037;-90
2021/12/24 18:17:41;;;;;;;9.57;5.88;;;-2.70;99.90;;;;;;5033831;28;20092;-89
2021/12/24 18:20:10;;;;;;;7.65;4.65;;;-2.70;99.90;;;;;;5034011;28;20037;-90
2021/12/24 18:22:36;;;;;;;9.80;6.27;;;-2.60;99.90;;;;;;5034031;28;20116;-90
2021/12/24 18:25:03;;;;;;;13.65;5.50;;;-2.60;99.90;;;;;;5033985;28;20040;-90
2021/12/24 18:27:29;;;;;;;15.10;8.18;;;-2.60;99.90;;;;;;5034178;28;20376;-90
2021/12/24 18:29:54;;;;;;;13.60;6.40;;;-2.60;99.90;;;;;;5034151;28;20028;-90
2021/12/24 18:32:20;;;;;;;13.88;7.40;;;-2.60;99.90;;;;;;5035251;28;20471;-90
2021/12/24 18:34:45;;;;;;;10.75;6.72;;;-2.60;99.90;;;;;;5029861;28;20501;-90
2021/12/24 18:37:11;;;;;;;9.85;6.47;;;-2.50;99.90;;;;;;5034870;28;20373;-90
2021/12/24 18:39:37;;;;;;;20.27;8.52;;;-2.50;99.90;;;;;;5031912;28;20036;-90
2021/12/24 18:42:04;;;;;;;304.80;101.25;;;-2.50;99.90;;;;;;5014302;28;20030;-91
2021/12/24 18:44:30;;;;;;;50.92;16.25;;;-2.50;99.90;;;;;;5014090;28;20026;-91
2021/12/24 18:46:55;;;;;;;373.20;103.90;;;-2.40;99.90;;;;;;5013790;28;20072;-90
2021/12/24 18:49:21;;;;;;;34.67;14.52;;;-2.40;99.90;;;;;;5014187;28;20026;-91
2021/12/24 18:51:47;;;;;;;19.27;8.25;;;-2.40;99.90;;;;;;5016017;28;20037;-90
2021/12/24 18:54:13;;;;;;;281.55;82.30;;;-2.30;99.90;;;;;;5033806;28;20018;-90
2021/12/24 18:56:39;;;;;;;218.77;57.40;;;-2.30;99.90;;;;;;5033634;28;20025;-90
2021/12/24 18:59:05;;;;;;;431.65;111.22;;;-2.30;99.90;;;;;;5033609;28;20029;-90
2021/12/24 19:01:30;;;;;;;380.67;92.22;;;-2.30;99.90;;;;;;5033292;28;20036;-90
2021/12/24 19:03:56;;;;;;;90.55;23.00;;;-2.30;99.90;;;;;;5032040;28;20053;-90
2021/12/24 19:06:22;;;;;;;240.70;57.88;;;-2.20;99.90;;;;;;5024603;28;20029;-90
2021/12/24 19:08:51;;;;;;;1190.25;379.60;;;-2.20;99.90;;;;;;5014144;28;20091;-90
2021/12/24 19:11:17;;;;;;;519.88;165.60;;;-2.20;99.90;;;;;;5030193;28;20487;-90
2021/12/24 19:13:44;;;;;;;427.40;123.25;;;-2.20;99.90;;;;;;5014194;28;20472;-91
2021/12/24 19:16:10;;;;;;;106.70;29.92;;;-2.20;99.90;;;;;;5013541;28;20503;-90
2021/12/24 19:18:36;;;;;;;41.63;16.23;;;-2.20;99.90;;;;;;5030871;28;20037;-90
2021/12/24 19:21:03;;;;;;;34.90;13.40;;;-2.20;99.90;;;;;;5033010;28;20034;-90
2021/12/24 19:23:29;;;;;;;29.35;11.90;;;-2.20;99.90;;;;;;5032902;28;20388;-90
2021/12/24 19:25:55;;;;;;;30.90;14.70;;;-2.20;99.90;;;;;;5032444;28;20125;-90
2021/12/24 19:28:21;;;;;;;28.85;7.68;;;-2.10;99.90;;;;;;5031880;28;20022;-90
2021/12/24 19:30:47;;;;;;;17.35;8.63;;;-2.20;99.90;;;;;;5032855;28;20022;-90
2021/12/24 19:33:15;;;;;;;19.30;8.63;;;-2.10;99.90;;;;;;5032720;28;20391;-90
2021/12/24 19:35:40;;;;;;;17.27;8.13;;;-2.10;99.90;;;;;;5032802;28;20120;-90
2021/12/24 19:38:07;;;;;;;15.48;10.15;;;-2.10;99.90;;;;;;5030377;28;20112;-90
2021/12/24 19:40:34;;;;;;;19.00;7.80;;;-2.10;99.90;;;;;;5032780;28;20025;-90
2021/12/24 19:43:03;;;;;;;15.07;6.75;;;-2.10;99.90;;;;;;5018793;28;20029;-90
2021/12/24 19:45:29;;;;;;;17.40;7.13;;;-2.10;99.90;;;;;;5027559;28;20033;-90
2021/12/24 19:47:55;;;;;;;12.63;5.88;;;-2.00;99.90;;;;;;5031944;28;20216;-90
2021/12/24 19:50:21;;;;;;;12.75;6.28;;;-2.10;99.90;;;;;;5033312;28;20056;-90
2021/12/24 19:52:48;;;;;;;25.30;9.07;;;-2.10;99.90;;;;;;5033736;28;20076;-89
2021/12/24 19:55:15;;;;;;;40.08;12.07;;;-2.10;99.90;;;;;;5033960;28;20533;-89
2021/12/24 19:57:42;;;;;;;30.88;12.95;;;-2.00;99.90;;;;;;5032916;28;20036;-89
2021/12/24 20:00:18;;;;;;;25.90;13.32;;;-2.00;99.90;;;;;;5032283;28;20071;-90
2021/12/24 20:02:44;;;;;;;109.38;30.70;;;-2.00;99.90;;;;;;5032443;28;20095;-90
2021/12/24 20:05:11;;;;;;;795.80;222.50;;;-2.00;99.90;;;;;;5049493;28;20471;-90
2021/12/24 20:07:37;;;;;;;229.60;55.95;;;-1.90;99.90;;;;;;5032595;28;20120;-91
2021/12/24 20:10:04;;;;;;;357.10;70.32;;;-1.90;99.90;;;;;;5032433;28;20045;-91
2021/12/24 20:12:30;;;;;;;155.55;38.00;;;-1.90;99.90;;;;;;5032420;28;20029;-91
2021/12/24 20:14:55;;;;;;;29.48;10.50;;;-1.90;99.90;;;;;;5032029;28;20055;-90
2021/12/24 20:17:21;;;;;;;42.17;18.83;;;-1.90;99.90;;;;;;5032516;28;20041;-90
2021/12/24 20:19:47;;;;;;;382.55;116.47;;;-1.90;99.90;;;;;;5032796;28;20029;-91
2021/12/24 20:22:13;;;;;;;61.08;19.40;;;-1.80;99.90;;;;;;5032187;28;20029;-91
2021/12/24 20:24:39;;;;;;;20.00;10.63;;;-1.80;99.90;;;;;;5032364;28;20116;-91
2021/12/24 20:27:05;;;;;;;645.05;182.88;;;-1.80;99.90;;;;;;5032337;28;20117;-92
2021/12/24 20:29:31;;;;;;;231.85;61.78;;;-1.80;99.90;;;;;;5032322;28;20021;-92
2021/12/24 20:31:57;;;;;;;97.63;28.90;;;-1.70;99.90;;;;;;5032740;28;20483;-90
2021/12/24 20:34:23;;;;;;;205.02;64.43;;;-1.70;99.90;;;;;;5034740;28;20060;-91
2021/12/24 20:36:49;;;;;;;48.63;19.08;;;-1.70;99.90;;;;;;5022164;28;20065;-92
2021/12/24 20:39:15;;;;;;;431.65;137.50;;;-1.70;99.90;;;;;;5036417;28;20045;-90
2021/12/24 20:41:42;;;;;;;175.05;47.55;;;-1.70;99.90;;;;;;5036168;28;20069;-91
2021/12/24 20:44:08;;;;;;;125.18;45.85;;;-1.60;99.90;;;;;;5036075;28;20048;-90
2021/12/24 20:46:34;;;;;;;444.98;173.75;;;-1.60;99.90;;;;;;5031514;28;20045;-92
2021/12/24 20:49:01;;;;;;;106.35;32.58;;;-1.60;99.90;;;;;;5016183;28;20022;-92
2021/12/24 20:51:28;;;;;;;102.45;38.50;;;-1.60;99.90;;;;;;5029373;28;20037;-91
2021/12/24 20:53:54;;;;;;;162.02;58.55;;;-1.60;99.90;;;;;;5036200;28;20021;-92
2021/12/24 20:56:20;;;;;;;37.65;15.40;;;-1.60;99.90;;;;;;5035975;28;20041;-91
2021/12/24 20:58:45;;;;;;;35.13;12.07;;;-1.60;99.90;;;;;;5035946;28;20033;-91
2021/12/24 21:01:11;;;;;;;131.38;52.28;;;-1.60;99.90;;;;;;5036292;28;20490;-92
2021/12/24 21:03:37;;;;;;;42.28;20.45;;;-1.60;99.90;;;;;;5036146;28;20475;-92
2021/12/24 21:06:03;;;;;;;22.23;10.32;;;-1.50;99.90;;;;;;5035617;28;20080;-91
2021/12/24 21:08:28;;;;;;;25.60;8.82;;;-1.60;99.90;;;;;;5036002;28;20049;-91
2021/12/24 21:10:54;;;;;;;20.58;8.13;;;-1.50;99.90;;;;;;5036924;28;20049;-92
2021/12/24 21:13:22;;;;;;;30.60;10.77;;;-1.50;99.90;;;;;;5035666;28;20368;-91
2021/12/24 21:15:50;;;;;;;15.82;9.15;;;-1.40;99.90;;;;;;5035942;28;20018;-91
2021/12/24 21:18:17;;;;;;;16.48;8.88;;;-1.50;99.90;;;;;;5035747;28;20120;-93
2021/12/24 21:20:43;;;;;;;18.30;10.43;;;-1.50;99.90;;;;;;5035801;28;20117;-91
2021/12/24 21:23:09;;;;;;;18.42;10.25;;;-1.40;99.90;;;;;;5035670;28;20053;-92
2021/12/24 21:25:35;;;;;;;22.80;9.75;;;-1.40;99.90;;;;;;5035563;28;20029;-93
2021/12/24 21:28:02;;;;;;;15.73;8.90;;;-1.40;99.90;;;;;;5035259;28;20034;-91
2021/12/24 21:30:28;;;;;;;17.00;8.70;;;-1.40;99.90;;;;;;5035405;28;20018;-91
2021/12/24 21:32:54;;;;;;;25.00;9.95;;;-1.40;99.90;;;;;;5035437;28;20022;-91
2021/12/24 21:35:22;;;;;;;24.90;10.82;;;-1.30;99.90;;;;;;5034979;28;20022;-90
2021/12/24 21:37:49;;;;;;;25.90;10.60;;;-1.30;99.90;;;;;;5035452;28;20125;-90
2021/12/24 21:40:20;;;;;;;34.15;14.02;;;-1.20;99.90;;;;;;5035253;28;20455;-90
2021/12/24 21:42:45;;;;;;;37.63;14.60;;;-1.20;99.90;;;;;;5035484;28;20037;-92
2021/12/24 21:45:12;;;;;;;34.17;17.77;;;-1.20;99.90;;;;;;5035016;28;20380;-93
2021/12/24 21:47:41;;;;;;;248.32;67.07;;;-1.20;99.90;;;;;;5034500;28;20041;-91
2021/12/24 21:50:10;;;;;;;109.68;24.52;;;-1.20;99.90;;;;;;5032850;28;20104;-90
2021/12/24 21:52:37;;;;;;;32.83;13.93;;;-1.10;99.90;;;;;;5029554;28;20018;-92
2021/12/24 21:55:04;;;;;;;78.93;20.70;;;-1.10;99.90;;;;;;5034178;28;20033;-91
2021/12/24 21:57:30;;;;;;;75.50;26.20;;;-1.10;99.90;;;;;;5019907;28;20036;-91
2021/12/24 21:59:56;;;;;;;173.23;39.20;;;-1.10;99.90;;;;;;5014348;28;20026;-92
2021/12/24 22:02:24;;;;;;;97.68;22.05;;;-1.10;99.90;;;;;;5021737;28;20060;-91
2021/12/24 22:05:41;;;;;;;241.95;69.50;;;-1.10;99.90;;;;;;5034565;28;20033;-92
2021/12/24 22:11:01;;;;;;;203.10;59.22;;;-1.00;99.90;;;;;;4994424;28;20109;-92
2021/12/24 22:13:29;;;;;;;367.77;66.05;;;-1.00;99.90;;;;;;5028435;28;20034;-91
2021/12/24 22:16:00;;;;;;;68.57;29.73;;;-1.00;99.90;;;;;;5034686;28;20056;-93
2021/12/24 22:18:30;;;;;;;425.23;81.75;;;-0.90;99.90;;;;;;5034347;28;20029;-92
2021/12/24 22:20:56;;;;;;;307.05;79.55;;;-0.90;99.90;;;;;;5034358;28;20033;-91
2021/12/24 22:23:22;;;;;;;501.55;168.45;;;-0.90;99.90;;;;;;5034569;28;20116;-93
2021/12/24 22:25:47;;;;;;;121.25;38.25;;;-0.80;99.90;;;;;;5032886;28;20026;-92
2021/12/24 22:28:13;;;;;;;262.02;133.55;;;-0.80;99.90;;;;;;5034478;28;20037;-92
2021/12/24 22:30:39;;;;;;;152.48;43.22;;;-0.80;99.90;;;;;;5033816;28;20029;-95
2021/12/24 22:33:06;;;;;;;339.10;104.53;;;-0.70;99.90;;;;;;5034405;28;20025;-92
2021/12/24 22:35:33;;;;;;;141.25;44.58;;;-0.70;99.90;;;;;;5034228;28;20022;-92
2021/12/24 22:37:58;;;;;;;69.70;27.23;;;-0.70;99.90;;;;;;5034702;28;20028;-92
2021/12/24 22:40:26;;;;;;;38.17;15.27;;;-0.60;99.90;;;;;;5034116;28;20029;-91
2021/12/24 22:42:52;;;;;;;26.45;13.52;;;-0.60;99.90;;;;;;5034144;28;20025;-91
2021/12/24 22:45:18;;;;;;;42.35;16.17;;;-0.60;99.90;;;;;;5033663;28;20025;-92
2021/12/24 22:47:46;;;;;;;37.95;14.07;;;-0.50;99.90;;;;;;5033837;28;20045;-91
2021/12/24 22:50:12;;;;;;;32.45;12.98;;;-0.40;99.90;;;;;;5034202;28;20471;-90
2021/12/24 22:52:43;;;;;;;50.28;20.00;;;-0.40;99.90;;;;;;5033883;28;20021;-90
2021/12/24 22:55:11;;;;;;;44.58;18.95;;;-0.40;99.90;;;;;;5034071;28;20029;-91
2021/12/24 22:57:37;;;;;;;38.83;13.93;;;-0.30;99.90;;;;;;5033193;28;20391;-92
2021/12/24 23:00:17;;;;;;;45.88;17.15;;;-0.30;99.90;;;;;;5033436;28;20060;-92
2021/12/24 23:02:43;;;;;;;744.20;227.50;;;-0.30;99.90;;;;;;5029428;28;20025;-92
2021/12/24 23:05:10;;;;;;;539.65;166.40;;;-0.30;99.90;;;;;;5033625;28;20037;-92
2021/12/24 23:07:35;;;;;;;1547.38;455.60;;;-0.20;99.90;;;;;;5033631;28;20088;-92
2021/12/24 23:10:01;;;;;;;1999.90;568.33;;;-0.20;99.90;;;;;;5046612;28;20030;-92
2021/12/24 23:12:27;;;;;;;1186.95;345.38;;;-0.20;99.90;;;;;;5022653;28;20025;-92
2021/12/24 23:14:53;;;;;;;469.67;118.53;;;-0.20;99.90;;;;;;5021707;28;20033;-92
2021/12/24 23:17:25;;;;;;;238.52;55.58;;;-0.20;99.90;;;;;;5013933;28;20079;-93
2021/12/24 23:19:55;;;;;;;443.13;132.27;;;-0.10;99.90;;;;;;5033083;28;20021;-92
2021/12/24 23:22:21;;;;;;;1678.05;451.55;;;-0.10;99.90;;;;;;5030854;28;20116;-92
2021/12/24 23:24:47;;;;;;;101.80;28.92;;;-0.10;99.90;;;;;;5033296;28;20040;-92
2021/12/24 23:27:13;;;;;;;112.22;28.77;;;-0.10;99.90;;;;;;5033463;28;20032;-93
2021/12/24 23:29:39;;;;;;;147.02;41.67;;;0.00;99.90;;;;;;5033051;28;20017;-92
2021/12/24 23:32:05;;;;;;;605.92;205.82;;;0.00;99.90;;;;;;5033288;28;20029;-93
2021/12/24 23:34:31;;;;;;;96.05;27.67;;;0.10;99.90;;;;;;5033630;28;20033;-94
2021/12/24 23:36:56;;;;;;;95.40;27.75;;;0.10;99.90;;;;;;5033479;28;20025;-92
2021/12/24 23:39:22;;;;;;;119.20;36.03;;;0.10;99.90;;;;;;5033443;28;20033;-93
2021/12/24 23:41:48;;;;;;;104.40;32.67;;;0.20;99.90;;;;;;5031312;28;20025;-93
2021/12/24 23:44:15;;;;;;;208.25;70.43;;;0.20;99.90;;;;;;5033481;28;20021;-93
2021/12/24 23:49:11;;;;;;;114.50;50.17;;;0.20;99.90;;;;;;5034595;28;20112;-93
2021/12/24 23:51:37;;;;;;;93.50;37.70;;;0.30;99.90;;;;;;5033612;28;20053;-93
2021/12/24 23:54:04;;;;;;;117.68;58.00;;;0.30;99.90;;;;;;5033137;28;20028;-94
2021/12/24 23:56:30;;;;;;;90.38;38.17;;;0.30;99.90;;;;;;5033388;28;20037;-93
2021/12/24 23:58:56;;;;;;;170.63;75.30;;;0.30;99.90;;;;;;5033017;28;20030;-94
